sensor_id;sensor_type;location;lat;lon;timestamp;P1;P2;P0
74426;PMS7003;62859;53.906;27.430;2023-10-19T00:00:34;0.7;0.3;0
74426;PMS7003;62859;53.906;27.430;2023-10-19T00:06:14;0;0;0
74426;PMS7003;62859;53.906;27.430;2023-10-19T00:10:44;1.7;1;1
74426;PMS7003;62859;53.906;27.430;2023-10-19T00:16:14;2.8;2.8;2.5
74426;PMS7003;62859;53.906;27.430;2023-10-19T00:20:54;3.7;3.7;3.7
74426;PMS7003;62859;53.906;27.430;2023-10-19T00:25:34;7.3;6.7;6.3
74426;PMS7003;62859;53.906;27.430;2023-10-19T00:30:36;9;8.8;8.5
74426;PMS7003;62859;53.906;27.430;2023-10-19T00:35:46;7.7;7.7;7.3
74426;PMS7003;62859;53.906;27.430;2023-10-19T00:41:14;12.7;12.3;12.3
74426;PMS7003;62859;53.906;27.430;2023-10-19T00:46:04;26;25.7;23.7
74426;PMS7003;62859;53.906;27.430;2023-10-19T00:50:34;24.5;24.5;22.5
74426;PMS7003;62859;53.906;27.430;2023-10-19T00:55:40;17;16.7;14.7
74426;PMS7003;62859;53.906;27.430;2023-10-19T01:00:34;18.7;18.7;16.7
74426;PMS7003;62859;53.906;27.430;2023-10-19T01:06:12;0.3;0.3;0.3
74426;PMS7003;62859;53.906;27.430;2023-10-19T01:10:36;0.5;0.5;0
74426;PMS7003;62859;53.906;27.430;2023-10-19T01:15:40;0.3;0.3;0
74426;PMS7003;62859;53.906;27.430;2023-10-19T01:20:52;0;0;0
74426;PMS7003;62859;53.906;27.430;2023-10-19T01:26:00;0.7;0.7;0
74426;PMS7003;62859;53.906;27.430;2023-10-19T01:31:12;1.3;1;0.3
74426;PMS7003;62859;53.906;27.430;2023-10-19T01:35:44;0;0;0
74426;PMS7003;62859;53.906;27.430;2023-10-19T01:40:34;0.3;0.3;0.3
74426;PMS7003;62859;53.906;27.430;2023-10-19T01:45:34;0.7;0.3;0
74426;PMS7003;62859;53.906;27.430;2023-10-19T01:50:34;0;0;0
74426;PMS7003;62859;53.906;27.430;2023-10-19T01:56:15;0.3;0.3;0
74426;PMS7003;62859;53.906;27.430;2023-10-19T02:01:04;1;0.7;0
74426;PMS7003;62859;53.906;27.430;2023-10-19T02:05:40;1.3;0.3;0
74426;PMS7003;62859;53.906;27.430;2023-10-19T02:11:04;0.5;0.3;0
74426;PMS7003;62859;53.906;27.430;2023-10-19T02:15:36;0.3;0.3;0.3
74426;PMS7003;62859;53.906;27.430;2023-10-19T02:21:14;0.7;0.7;0
74426;PMS7003;62859;53.906;27.430;2023-10-19T02:25:44;1.8;0.8;0.3
74426;PMS7003;62859;53.906;27.430;2023-10-19T02:30:48;0.3;0.3;0
74426;PMS7003;62859;53.906;27.430;2023-10-19T02:35:46;2;1;0
74426;PMS7003;62859;53.906;27.430;2023-10-19T02:41:00;1;0.3;0.3
74426;PMS7003;62859;53.906;27.430;2023-10-19T02:46:12;1.3;0.8;0.3
74426;PMS7003;62859;53.906;27.430;2023-10-19T02:50:52;1.3;0.7;0.3
74426;PMS7003;62859;53.906;27.430;2023-10-19T02:55:34;2;0;0
74426;PMS7003;62859;53.906;27.430;2023-10-19T03:01:00;1;0.7;0.7
74426;PMS7003;62859;53.906;27.430;2023-10-19T03:06:12;1.8;1;0.8
74426;PMS7003;62859;53.906;27.430;2023-10-19T03:11:12;1.7;1;0.3
74426;PMS7003;62859;53.906;27.430;2023-10-19T03:15:44;1.7;0.7;0.7
74426;PMS7003;62859;53.906;27.430;2023-10-19T03:20:37;0.7;0.7;0.7
74426;PMS7003;62859;53.906;27.430;2023-10-19T03:25:54;2;1.5;1.3
74426;PMS7003;62859;53.906;27.430;2023-10-19T03:31:12;1;1;1
74426;PMS7003;62859;53.906;27.430;2023-10-19T03:36:00;2;1.7;0.7
74426;PMS7003;62859;53.906;27.430;2023-10-19T03:41:00;0.7;0.7;0.3
74426;PMS7003;62859;53.906;27.430;2023-10-19T03:46:14;2;1.5;0.8
74426;PMS7003;62859;53.906;27.430;2023-10-19T03:51:00;1;1;0.7
74426;PMS7003;62859;53.906;27.430;2023-10-19T03:56:14;1.3;0.7;0.3
74426;PMS7003;62859;53.906;27.430;2023-10-19T04:01:14;1;1;0.7
74426;PMS7003;62859;53.906;27.430;2023-10-19T04:05:40;2;1.5;1
74426;PMS7003;62859;53.906;27.430;2023-10-19T04:10:44;3;2.3;1.3
74426;PMS7003;62859;53.906;27.430;2023-10-19T04:15:58;3.3;2;1.3
74426;PMS7003;62859;53.906;27.430;2023-10-19T04:21:12;2.3;1.8;1.3
74426;PMS7003;62859;53.906;27.430;2023-10-19T04:25:58;2.3;2;1.7
74426;PMS7003;62859;53.906;27.430;2023-10-19T04:30:36;2;2;1.3
74426;PMS7003;62859;53.906;27.430;2023-10-19T04:35:46;1.7;1.7;1.7
74426;PMS7003;62859;53.906;27.430;2023-10-19T04:41:06;2.8;2.3;1.8
74426;PMS7003;62859;53.906;27.430;2023-10-19T04:46:12;2.7;2.7;1.7
74426;PMS7003;62859;53.906;27.430;2023-10-19T04:50:46;4.3;4.3;4
74426;PMS7003;62859;53.906;27.430;2023-10-19T04:55:34;3;3;2
74426;PMS7003;62859;53.906;27.430;2023-10-19T05:00:34;3;2.8;1.5
74426;PMS7003;62859;53.906;27.430;2023-10-19T05:06:12;5;4.3;3.3
74426;PMS7003;62859;53.906;27.430;2023-10-19T05:11:12;7.3;4.3;3
74426;PMS7003;62859;53.906;27.430;2023-10-19T05:15:58;2.3;2.3;1.7
74426;PMS7003;62859;53.906;27.430;2023-10-19T05:21:00;2.8;2.8;2.3
74426;PMS7003;62859;53.906;27.430;2023-10-19T05:25:52;4;3.7;2
74426;PMS7003;62859;53.906;27.430;2023-10-19T05:30:35;3.3;2.7;2
74426;PMS7003;62859;53.906;27.430;2023-10-19T05:36:10;3.3;3;2
74426;PMS7003;62859;53.906;27.430;2023-10-19T05:40:46;6.5;4.5;4
74426;PMS7003;62859;53.906;27.430;2023-10-19T05:45:42;4.7;3.7;2.7
74426;PMS7003;62859;53.906;27.430;2023-10-19T05:50:34;2;2;1.7
74426;PMS7003;62859;53.906;27.430;2023-10-19T05:55:58;3;3;2
74426;PMS7003;62859;53.906;27.430;2023-10-19T06:01:12;3;2.5;1.5
74426;PMS7003;62859;53.906;27.430;2023-10-19T06:05:48;4.7;4;3
74426;PMS7003;62859;53.906;27.430;2023-10-19T06:11:00;4;4;3
74426;PMS7003;62859;53.906;27.430;2023-10-19T06:15:52;6;4.3;2.8
74426;PMS7003;62859;53.906;27.430;2023-10-19T06:20:34;3.3;3.3;2.7
74426;PMS7003;62859;53.906;27.430;2023-10-19T06:26:10;3.3;3;2
74426;PMS7003;62859;53.906;27.430;2023-10-19T06:30:34;5;5;4
74426;PMS7003;62859;53.906;27.430;2023-10-19T06:35:34;6;5;3
74426;PMS7003;62859;53.906;27.430;2023-10-19T06:40:34;6;5.7;3.3
74426;PMS7003;62859;53.906;27.430;2023-10-19T06:45:36;3.7;3.3;2.7
74426;PMS7003;62859;53.906;27.430;2023-10-19T06:51:00;5;4;2.7
74426;PMS7003;62859;53.906;27.430;2023-10-19T06:55:58;4;4;2.5
74426;PMS7003;62859;53.906;27.430;2023-10-19T07:00:36;5.7;5;3.3
74426;PMS7003;62859;53.906;27.430;2023-10-19T07:05:44;4.7;4.3;2.7
74426;PMS7003;62859;53.906;27.430;2023-10-19T07:10:54;6.3;6.3;5
74426;PMS7003;62859;53.906;27.430;2023-10-19T07:16:11;28.3;27.8;24.8
74426;PMS7003;62859;53.906;27.430;2023-10-19T07:20:34;15.3;15.3;14.3
74426;PMS7003;62859;53.906;27.430;2023-10-19T07:25:34;7;6.7;5.7
74426;PMS7003;62859;53.906;27.430;2023-10-19T07:30:44;8.7;8.3;5.7
74426;PMS7003;62859;53.906;27.430;2023-10-19T07:36:12;5.3;4.3;3.5
74426;PMS7003;62859;53.906;27.430;2023-10-19T07:41:12;2.7;2.3;2
74426;PMS7003;62859;53.906;27.430;2023-10-19T07:46:00;4.7;3;2
74426;PMS7003;62859;53.906;27.430;2023-10-19T07:51:12;4.3;4;2.7
74426;PMS7003;62859;53.906;27.430;2023-10-19T07:55:50;4.3;2.8;2
74426;PMS7003;62859;53.906;27.430;2023-10-19T08:00:46;3.3;2.3;2.3
74426;PMS7003;62859;53.906;27.430;2023-10-19T08:06:12;2;2;1.3
74426;PMS7003;62859;53.906;27.430;2023-10-19T08:10:34;3;2.3;1.5
74426;PMS7003;62859;53.906;27.430;2023-10-19T08:15:38;2;2;1.3
74426;PMS7003;62859;53.906;27.430;2023-10-19T08:20:38;3;2.7;2.3
74426;PMS7003;62859;53.906;27.430;2023-10-19T08:25:58;2.3;1.7;1.7
74426;PMS7003;62859;53.906;27.430;2023-10-19T08:31:10;1;1;1
74426;PMS7003;62859;53.906;27.430;2023-10-19T08:35:52;2;1.7;1
74426;PMS7003;62859;53.906;27.430;2023-10-19T08:40:58;2.3;1.7;1.3
74426;PMS7003;62859;53.906;27.430;2023-10-19T08:45:53;1.3;1.3;1
74426;PMS7003;62859;53.906;27.430;2023-10-19T08:50:53;3.3;2.8;2
74426;PMS7003;62859;53.906;27.430;2023-10-19T08:56:12;3.7;3;2.7
74426;PMS7003;62859;53.906;27.430;2023-10-19T09:00:51;3;3;2
74426;PMS7003;62859;53.906;27.430;2023-10-19T09:05:37;2.7;2.7;2
74426;PMS7003;62859;53.906;27.430;2023-10-19T09:10:34;2;1.3;1.3
74426;PMS7003;62859;53.906;27.430;2023-10-19T09:16:03;2;2;1
74426;PMS7003;62859;53.906;27.430;2023-10-19T09:21:10;2;2;1.3
74426;PMS7003;62859;53.906;27.430;2023-10-19T09:25:59;2.7;2;1
74426;PMS7003;62859;53.906;27.430;2023-10-19T09:31:04;1.8;1.5;1.3
74426;PMS7003;62859;53.906;27.430;2023-10-19T09:35:50;1.7;1.3;0.3
74426;PMS7003;62859;53.906;27.430;2023-10-19T09:40:44;1.7;1.7;1
74426;PMS7003;62859;53.906;27.430;2023-10-19T09:46:15;2.3;1.3;1.3
74426;PMS7003;62859;53.906;27.430;2023-10-19T09:50:40;3.3;3.3;2.8
74426;PMS7003;62859;53.906;27.430;2023-10-19T09:55:38;2.3;2.3;1.7
74426;PMS7003;62859;53.906;27.430;2023-10-19T10:00:38;1.7;1.7;1.3
74426;PMS7003;62859;53.906;27.430;2023-10-19T10:05:52;2.5;2;1
74426;PMS7003;62859;53.906;27.430;2023-10-19T10:11:16;2.3;2;1.7
74426;PMS7003;62859;53.906;27.430;2023-10-19T10:15:38;2.7;2;1.3
74426;PMS7003;62859;53.906;27.430;2023-10-19T10:21:06;4;3.7;2.3
74426;PMS7003;62859;53.906;27.430;2023-10-19T10:25:50;2;2;1.3
74426;PMS7003;62859;53.906;27.430;2023-10-19T10:30:34;2;2;1.7
74426;PMS7003;62859;53.906;27.430;2023-10-19T10:36:10;3.7;2.3;2
74426;PMS7003;62859;53.906;27.430;2023-10-19T10:40:41;3;2;1.7
74426;PMS7003;62859;53.906;27.430;2023-10-19T10:45:42;1.3;1.3;1
74426;PMS7003;62859;53.906;27.430;2023-10-19T10:50:40;1.3;1.3;1.3
74426;PMS7003;62859;53.906;27.430;2023-10-19T10:55:48;2.3;2.3;1.7
74426;PMS7003;62859;53.906;27.430;2023-10-19T11:01:12;2;2;1
74426;PMS7003;62859;53.906;27.430;2023-10-19T11:05:35;2.5;2.5;1.5
74426;PMS7003;62859;53.906;27.430;2023-10-19T11:11:02;2;2;1.3
74426;PMS7003;62859;53.906;27.430;2023-10-19T11:15:34;1.7;1.7;1.7
74426;PMS7003;62859;53.906;27.430;2023-10-19T11:20:40;3.3;2.7;1.7
74426;PMS7003;62859;53.906;27.430;2023-10-19T11:26:06;2.5;2.3;1.8
74426;PMS7003;62859;53.906;27.430;2023-10-19T11:30:34;2.3;2.3;1.3
74426;PMS7003;62859;53.906;27.430;2023-10-19T11:35:48;4;3.7;2
74426;PMS7003;62859;53.906;27.430;2023-10-19T11:40:34;3.3;1.7;1.3
74426;PMS7003;62859;53.906;27.430;2023-10-19T11:45:58;2;1.8;1.3
74426;PMS7003;62859;53.906;27.430;2023-10-19T11:51:12;3;2.7;2.3
74426;PMS7003;62859;53.906;27.430;2023-10-19T11:55:34;3;3;2
74426;PMS7003;62859;53.906;27.430;2023-10-19T12:01:00;3.3;2.5;2
74426;PMS7003;62859;53.906;27.430;2023-10-19T12:05:52;3.7;3;2
74426;PMS7003;62859;53.906;27.430;2023-10-19T12:10:40;2;1.7;1.3
74426;PMS7003;62859;53.906;27.430;2023-10-19T12:15:48;3;2.3;1.7
74426;PMS7003;62859;53.906;27.430;2023-10-19T12:20:44;3.5;2;1.3
74426;PMS7003;62859;53.906;27.430;2023-10-19T12:25:34;2.7;2.7;1.7
74426;PMS7003;62859;53.906;27.430;2023-10-19T12:31:10;1.3;1.3;1
74426;PMS7003;62859;53.906;27.430;2023-10-19T12:35:41;3;2.3;1.7
74426;PMS7003;62859;53.906;27.430;2023-10-19T12:41:10;2.5;1.8;1.3
74426;PMS7003;62859;53.906;27.430;2023-10-19T12:46:12;1.7;1.3;1.3
74426;PMS7003;62859;53.906;27.430;2023-10-19T12:50:37;2;1.3;1.3
74426;PMS7003;62859;53.906;27.430;2023-10-19T12:56:00;3;2;1
74426;PMS7003;62859;53.906;27.430;2023-10-19T13:00:35;2.3;2.3;1.5
74426;PMS7003;62859;53.906;27.430;2023-10-19T13:06:00;4;3;2
74426;PMS7003;62859;53.906;27.430;2023-10-19T13:10:35;2;2;1.3
74426;PMS7003;62859;53.906;27.430;2023-10-19T13:15:35;2.3;2;1
74426;PMS7003;62859;53.906;27.430;2023-10-19T13:21:12;2;2;1.5
74426;PMS7003;62859;53.906;27.430;2023-10-19T13:25:47;2;2;1.7
74426;PMS7003;62859;53.906;27.430;2023-10-19T13:31:12;2;2;1.3
74426;PMS7003;62859;53.906;27.430;2023-10-19T13:36:12;2.3;2;1.7
74426;PMS7003;62859;53.906;27.430;2023-10-19T13:40:59;3.3;2.3;1.5
74426;PMS7003;62859;53.906;27.430;2023-10-19T13:46:12;3;2.7;1.3
74426;PMS7003;62859;53.906;27.430;2023-10-19T13:50:41;3;1.7;1.3
74426;PMS7003;62859;53.906;27.430;2023-10-19T13:56:00;1.8;1.8;0.8
74426;PMS7003;62859;53.906;27.430;2023-10-19T14:00:50;2.7;2.3;1.3
74426;PMS7003;62859;53.906;27.430;2023-10-19T14:05:41;3;1.7;1
74426;PMS7003;62859;53.906;27.430;2023-10-19T14:11:15;2.7;2.7;1
74426;PMS7003;62859;53.906;27.430;2023-10-19T14:15:34;2;2;1.5
74426;PMS7003;62859;53.906;27.430;2023-10-19T14:21:13;1.7;1.7;1.3
74426;PMS7003;62859;53.906;27.430;2023-10-19T14:26:14;2;2;1.3
74426;PMS7003;62859;53.906;27.430;2023-10-19T14:31:00;3.3;2.3;1.7
74426;PMS7003;62859;53.906;27.430;2023-10-19T14:36:01;1.8;1.3;1
74426;PMS7003;62859;53.906;27.430;2023-10-19T14:40:46;3.3;3.3;2.7
74426;PMS7003;62859;53.906;27.430;2023-10-19T14:46:00;31.3;30.7;26
74426;PMS7003;62859;53.906;27.430;2023-10-19T14:50:34;23.3;23.3;21
74426;PMS7003;62859;53.906;27.430;2023-10-19T14:55:34;8.5;8.5;6.8
74426;PMS7003;62859;53.906;27.430;2023-10-19T15:01:10;4;3;2
74426;PMS7003;62859;53.906;27.430;2023-10-19T15:05:58;4.7;2.7;1.7
74426;PMS7003;62859;53.906;27.430;2023-10-19T15:11:16;2.7;2.7;2
74426;PMS7003;62859;53.906;27.430;2023-10-19T15:16:14;3.8;3.3;2.3
74426;PMS7003;62859;53.906;27.430;2023-10-19T15:21:05;5.7;3.7;2.7
74426;PMS7003;62859;53.906;27.430;2023-10-19T15:25:58;4.3;3.7;1.7
74426;PMS7003;62859;53.906;27.430;2023-10-19T15:30:40;3;3;2.7
74426;PMS7003;62859;53.906;27.430;2023-10-19T15:36:00;5;3.8;2.8
74426;PMS7003;62859;53.906;27.430;2023-10-19T15:40:34;5;4.3;3.3
74426;PMS7003;62859;53.906;27.430;2023-10-19T15:45:34;6;5.3;3.7
74426;PMS7003;62859;53.906;27.430;2023-10-19T15:51:10;4.8;4.5;3.3
74426;PMS7003;62859;53.906;27.430;2023-10-19T15:55:35;2.3;2.3;2.3
74426;PMS7003;62859;53.906;27.430;2023-10-19T16:01:14;3.7;3.3;2.3
74426;PMS7003;62859;53.906;27.430;2023-10-19T16:06:14;4;4;3.3
74426;PMS7003;62859;53.906;27.430;2023-10-19T16:10:52;4.5;4.3;3
74426;PMS7003;62859;53.906;27.430;2023-10-19T16:16:01;4;4;3.3
74426;PMS7003;62859;53.906;27.430;2023-10-19T16:20:46;3.7;3.3;3
74426;PMS7003;62859;53.906;27.430;2023-10-19T16:26:00;6.3;5;4.3
74426;PMS7003;62859;53.906;27.430;2023-10-19T16:30:34;12;10.8;9.8
74426;PMS7003;62859;53.906;27.430;2023-10-19T16:35:37;12.3;12.3;11.7
74426;PMS7003;62859;53.906;27.430;2023-10-19T16:41:10;20.7;19.3;18
74426;PMS7003;62859;53.906;27.430;2023-10-19T16:45:58;17;17;16
74426;PMS7003;62859;53.906;27.430;2023-10-19T16:51:12;22.5;22.3;21
74426;PMS7003;62859;53.906;27.430;2023-10-19T16:55:48;19;17;15.7
74426;PMS7003;62859;53.906;27.430;2023-10-19T17:01:12;16;16;13.7
74426;PMS7003;62859;53.906;27.430;2023-10-19T17:06:12;26.3;24;22.3
74426;PMS7003;62859;53.906;27.430;2023-10-19T17:10:34;16.5;15.5;14.5
74426;PMS7003;62859;53.906;27.430;2023-10-19T17:15:34;6;5;4.7
74426;PMS7003;62859;53.906;27.430;2023-10-19T17:20:34;6;5.7;4.7
74426;PMS7003;62859;53.906;27.430;2023-10-19T17:25:34;2.7;2.3;1.7
74426;PMS7003;62859;53.906;27.430;2023-10-19T17:31:12;6.8;6;4.3
74426;PMS7003;62859;53.906;27.430;2023-10-19T17:35:35;5;3.3;1.7
74426;PMS7003;62859;53.906;27.430;2023-10-19T17:41:14;6.3;5.7;5
74426;PMS7003;62859;53.906;27.430;2023-10-19T17:46:06;3.8;3;2.3
74426;PMS7003;62859;53.906;27.430;2023-10-19T17:51:13;8;8;7
74426;PMS7003;62859;53.906;27.430;2023-10-19T17:56:00;7.3;7.3;6.7
74426;PMS7003;62859;53.906;27.430;2023-10-19T18:00:46;4.3;3.7;2.7
74426;PMS7003;62859;53.906;27.430;2023-10-19T18:05:43;6;5.8;4
74426;PMS7003;62859;53.906;27.430;2023-10-19T18:10:34;8.7;7.7;6
74426;PMS7003;62859;53.906;27.430;2023-10-19T18:15:35;8.7;7.3;4
74426;PMS7003;62859;53.906;27.430;2023-10-19T18:21:08;8;6.3;4.7
74426;PMS7003;62859;53.906;27.430;2023-10-19T18:25:50;6.5;5.5;3.5
74426;PMS7003;62859;53.906;27.430;2023-10-19T18:31:10;5.3;5.3;3.7
74426;PMS7003;62859;53.906;27.430;2023-10-19T18:36:05;3.7;3.3;3
74426;PMS7003;62859;53.906;27.430;2023-10-19T18:41:10;4.3;4.3;3.3
74426;PMS7003;62859;53.906;27.430;2023-10-19T18:46:12;4.8;4;2.8
74426;PMS7003;62859;53.906;27.430;2023-10-19T18:50:34;4.7;3.3;3
74426;PMS7003;62859;53.906;27.430;2023-10-19T18:55:34;7.7;5;3.3
74426;PMS7003;62859;53.906;27.430;2023-10-19T19:00:34;9.3;6.7;4.3
74426;PMS7003;62859;53.906;27.430;2023-10-19T19:05:37;7.3;6.8;4.3
74426;PMS7003;62859;53.906;27.430;2023-10-19T19:11:08;9;6.7;4
74426;PMS7003;62859;53.906;27.430;2023-10-19T19:15:34;9;8.3;6
74426;PMS7003;62859;53.906;27.430;2023-10-19T19:21:12;8.3;7.7;5.3
74426;PMS7003;62859;53.906;27.430;2023-10-19T19:26:00;8.8;8;5
74426;PMS7003;62859;53.906;27.430;2023-10-19T19:31:13;9.7;9;5.3
74426;PMS7003;62859;53.906;27.430;2023-10-19T19:36:13;9.3;8.7;6
74426;PMS7003;62859;53.906;27.430;2023-10-19T19:40:34;8.8;7.8;5.3
74426;PMS7003;62859;53.906;27.430;2023-10-19T19:45:35;5.3;4;3.3
74426;PMS7003;62859;53.906;27.430;2023-10-19T19:50:41;4.7;4;2.7
74426;PMS7003;62859;53.906;27.430;2023-10-19T19:55:35;6.3;4;3
74426;PMS7003;62859;53.906;27.430;2023-10-19T20:01:04;5;4;3.3
74426;PMS7003;62859;53.906;27.430;2023-10-19T20:05:55;3.7;3.7;2.7
74426;PMS7003;62859;53.906;27.430;2023-10-19T20:11:20;4.7;3.3;2.3
74426;PMS7003;62859;53.906;27.430;2023-10-19T20:16:05;3;2.3;1.7
74426;PMS7003;62859;53.906;27.430;2023-10-19T20:21:01;5;4.3;3
74426;PMS7003;62859;53.906;27.430;2023-10-19T20:26:13;5;5;3.3
74426;PMS7003;62859;53.906;27.430;2023-10-19T20:30:34;6;5;3.3
74426;PMS7003;62859;53.906;27.430;2023-10-19T20:35:35;7.7;7.3;5
74426;PMS7003;62859;53.906;27.430;2023-10-19T20:40:45;8.5;7.8;4.3
74426;PMS7003;62859;53.906;27.430;2023-10-19T20:45:41;6;4.7;3.3
74426;PMS7003;62859;53.906;27.430;2023-10-19T20:51:05;5;4.7;3.7
74426;PMS7003;62859;53.906;27.430;2023-10-19T20:55:39;8;7.3;3.7
74426;PMS7003;62859;53.906;27.430;2023-10-19T21:01:13;6.8;6.3;4.3
74426;PMS7003;62859;53.906;27.430;2023-10-19T21:06:12;6;5.7;4
74426;PMS7003;62859;53.906;27.430;2023-10-19T21:11:01;10.3;9;5.3
74426;PMS7003;62859;53.906;27.430;2023-10-19T21:16:13;8;5;4
74426;PMS7003;62859;53.906;27.430;2023-10-19T21:20:59;6.5;5.8;4
74426;PMS7003;62859;53.906;27.430;2023-10-19T21:25:34;7.7;6.3;3.7
74426;PMS7003;62859;53.906;27.430;2023-10-19T21:30:45;7.7;7;4.7
74426;PMS7003;62859;53.906;27.430;2023-10-19T21:35:35;7.3;6.8;4.3
74426;PMS7003;62859;53.906;27.430;2023-10-19T21:40:53;10.3;8;6.3
74426;PMS7003;62859;53.906;27.430;2023-10-19T21:45:35;3.7;3.7;2.7
74426;PMS7003;62859;53.906;27.430;2023-10-19T21:51:11;5;4;3
74426;PMS7003;62859;53.906;27.430;2023-10-19T21:56:03;5.3;4;3
74426;PMS7003;62859;53.906;27.430;2023-10-19T22:01:14;5;3;2.7
74426;PMS7003;62859;53.906;27.430;2023-10-19T22:06:14;3.3;3;1.7
74426;PMS7003;62859;53.906;27.430;2023-10-19T22:10:41;1.7;1.7;1.3
74426;PMS7003;62859;53.906;27.430;2023-10-19T22:15:41;2.8;2;1.3
74426;PMS7003;62859;53.906;27.430;2023-10-19T22:20:54;3.7;3;1.7
74426;PMS7003;62859;53.906;27.430;2023-10-19T22:25:35;3.7;2.7;1.3
74426;PMS7003;62859;53.906;27.430;2023-10-19T22:31:05;4.3;3;1.3
74426;PMS7003;62859;53.906;27.430;2023-10-19T22:36:01;2.8;2.3;1.5
74426;PMS7003;62859;53.906;27.430;2023-10-19T22:41:13;3;2.7;1.7
74426;PMS7003;62859;53.906;27.430;2023-10-19T22:46:05;2;2;1.7
74426;PMS7003;62859;53.906;27.430;2023-10-19T22:51:13;1.7;1.7;1.3
74426;PMS7003;62859;53.906;27.430;2023-10-19T22:56:13;1.5;1.5;0.8
74426;PMS7003;62859;53.906;27.430;2023-10-19T23:00:47;1.7;1.3;1
74426;PMS7003;62859;53.906;27.430;2023-10-19T23:05:35;2.3;1.3;0.7
74426;PMS7003;62859;53.906;27.430;2023-10-19T23:10:51;2;2;1.3
74426;PMS7003;62859;53.906;27.430;2023-10-19T23:15:35;2;1;0.5
74426;PMS7003;62859;53.906;27.430;2023-10-19T23:21:05;1.7;1;1
74426;PMS7003;62859;53.906;27.430;2023-10-19T23:25:51;1.7;1.7;1
74426;PMS7003;62859;53.906;27.430;2023-10-19T23:31:11;1;1;0.8
74426;PMS7003;62859;53.906;27.430;2023-10-19T23:36:03;1.3;1;0.3
74426;PMS7003;62859;53.906;27.430;2023-10-19T23:41:11;1.7;1.3;0.3
74426;PMS7003;62859;53.906;27.430;2023-10-19T23:46:03;0.7;0.7;0.7
74426;PMS7003;62859;53.906;27.430;2023-10-19T23:50:35;2.3;1.3;1.3
74426;PMS7003;62859;53.906;27.430;2023-10-19T23:55:35;2;1.3;1.3
